KMSN

Dane County Regional-Truax Field Airport

Madison, Wisconsin, USA
KMSN 221902Z 2219/2318 03010G18KT P6SM -DZ VCSH OVC015 FM222000 03010KT P6SM -DZ BKN020 FM230000 03007KT P6SM -DZ SCT030 FM230200 03006KT P6SM SCT060 FM231300 34005KT P6SM FEW200
Issued Valid From Valid To
Jul-22 @ 19:02 UTC
(an hour ago)
Jul-22 @ 19:00 UTC
(an hour ago)
Jul-23 @ 18:00 UTC
(in 22 hours)
Expired Click to View Jul-22 @ 19:00 to Jul-22 @ 20:00
KMSN 221902Z 2219/2318 03010G18KT P6SM -DZ VCSH OVC015
Wind Visibility Clouds Conditions
30° at 10 knots
 Gusting to 18 knots
Greater than 6 miles
  • Overcast at 1,500' AGL
  • Light Drizzle
From Jul-22 @ 20:00 to Jul-23 @ 00:00
FM222000 03010KT P6SM -DZ BKN020
Wind Visibility Clouds Conditions
30° at 10 knots Greater than 6 miles
  • Broken at 2,000' AGL
  • Light Drizzle
From Jul-23 @ 00:00 to Jul-23 @ 02:00
FM230000 03007KT P6SM -DZ SCT030
Wind Visibility Clouds Conditions
30° at 7 knots Greater than 6 miles
  • Scattered at 3,000' AGL
  • Light Drizzle
From Jul-23 @ 02:00 to Jul-23 @ 13:00
FM230200 03006KT P6SM SCT060
Wind Visibility Clouds
30° at 6 knots Greater than 6 miles
  • Scattered at 6,000' AGL
From Jul-23 @ 13:00 to Jul-23 @ 18:00
FM231300 34005KT P6SM FEW200
Wind Visibility Clouds
340° at 5 knots Greater than 6 miles
  • Few at 20,000' AGL
KMSN 221902Z 2219/2318 03010G18KT P6SM -DZ VCSH OVC015 FM222000 03010KT P6SM -DZ BKN020 FM230000 03007KT P6SM -DZ SCT030 FM230200 03006KT P6SM SCT060 FM231300 34005KT P6SM FEW200
Issued Jul-22 @ 19:02 UTC
(an hour ago)
Valid From Jul-22 @ 19:00 UTC
(an hour ago)
Valid To Jul-23 @ 18:00 UTC
(in 22 hours)
Jul-22 @ 19:00 - Jul-22 @ 20:00
Wind Visibility
30° at 10 knots
 Gusting to 18 knots
Greater than 6 miles
Clouds
  • Overcast at 1,500' AGL
Conditions
  • Light Drizzle
From Jul-22 @ 20:00 - Jul-23 @ 00:00
Wind Visibility
30° at 10 knots Greater than 6 miles
Clouds
  • Broken at 2,000' AGL
Conditions
  • Light Drizzle
From Jul-23 @ 00:00 - Jul-23 @ 02:00
Wind Visibility
30° at 7 knots Greater than 6 miles
Clouds
  • Scattered at 3,000' AGL
Conditions
  • Light Drizzle
From Jul-23 @ 02:00 - Jul-23 @ 13:00
Wind Visibility
30° at 6 knots Greater than 6 miles
Clouds
  • Scattered at 6,000' AGL
From Jul-23 @ 13:00 - Jul-23 @ 18:00
Wind Visibility
340° at 5 knots Greater than 6 miles
Clouds
  • Few at 20,000' AGL